Time;durP1;ratioP1;P1;durP2;ratioP2;P2;SDS_P1;SDS_P2;PMS_P1;PMS_P2;Temp;Humidity;BMP_temperature;BMP_pressure;BME280_temperature;BME280_humidity;BME280_pressure;Samples;Min_cycle;Max_cycle;Signal;HPM_P1;HPM_P2
2021/07/15 00:01:49;;;;;;;58.38;32.00;;;;;;;17.83;100.00;101080.53;5062862;28;20108;-62
2021/07/15 00:04:14;;;;;;;55.88;31.40;;;;;;;17.80;100.00;101073.44;5065681;28;20024;-61
2021/07/15 00:06:41;;;;;;;55.38;30.13;;;;;;;17.89;100.00;101075.91;5062070;28;20098;-61
2021/07/15 00:09:06;;;;;;;58.25;32.17;;;;;;;17.87;100.00;101068.84;5065034;28;20545;-61
2021/07/15 00:11:38;;;;;;;55.65;30.45;;;;;;;17.81;100.00;101068.97;5062646;28;20032;-61
2021/07/15 00:14:05;;;;;;;56.13;31.27;;;;;;;17.83;100.00;101070.69;5065010;28;20025;-62
2021/07/15 00:16:30;;;;;;;55.42;30.20;;;;;;;17.98;100.00;101071.31;5063190;28;20111;-62
2021/07/15 00:18:55;;;;;;;59.17;31.98;;;;;;;17.83;100.00;101075.19;5063610;28;20100;-62
2021/07/15 00:21:23;;;;;;;61.42;32.30;;;;;;;17.87;100.00;101060.84;5064076;28;20028;-62
2021/07/15 00:23:49;;;;;;;63.28;32.80;;;;;;;17.81;100.00;101075.22;5062563;28;20059;-63
2021/07/15 00:26:21;;;;;;;66.82;35.80;;;;;;;17.82;100.00;101068.94;5064950;28;20447;-62
2021/07/15 00:28:46;;;;;;;68.13;35.42;;;;;;;17.76;100.00;101071.75;5062268;28;20029;-63
2021/07/15 00:31:12;;;;;;;63.30;34.67;;;;;;;17.85;100.00;101078.69;5064871;28;20041;-61
2021/07/15 00:33:37;;;;;;;66.35;34.10;;;;;;;17.73;100.00;101071.81;5062000;28;20036;-62
2021/07/15 00:36:03;;;;;;;69.10;35.25;;;;;;;17.71;100.00;101079.88;5064003;28;20494;-64
2021/07/15 00:38:29;;;;;;;71.50;35.63;;;;;;;17.66;100.00;101071.06;5063044;28;20025;-62
2021/07/15 00:40:56;;;;;;;63.55;33.47;;;;;;;17.67;100.00;101056.78;5063371;28;20032;-63
2021/07/15 00:43:22;;;;;;;64.82;34.50;;;;;;;17.73;100.00;101071.81;5063689;28;20036;-63
2021/07/15 00:45:47;;;;;;;62.53;34.03;;;;;;;17.66;100.00;101072.84;5061176;28;20031;-61
2021/07/15 00:48:13;;;;;;;59.92;28.55;;;;;;;17.78;100.00;101059.25;5064937;28;20107;-62
2021/07/15 00:50:39;;;;;;;60.83;32.88;;;;;;;17.68;100.00;101069.25;5061162;28;20383;-62
2021/07/15 00:53:06;;;;;;;57.45;30.48;;;;;;;17.69;100.00;101065.66;5064189;28;20499;-64
2021/07/15 00:55:36;;;;;;;62.30;33.38;;;;;;;17.68;100.00;101063.00;5062668;28;20075;-62
2021/07/15 00:58:03;;;;;;;57.08;30.35;;;;;;;17.64;100.00;101059.53;5063580;28;20108;-66
2021/07/15 01:00:29;;;;;;;58.05;30.02;;;;;;;17.61;100.00;101062.28;5062440;28;20028;-69
2021/07/15 01:02:56;;;;;;;51.28;28.08;;;;;;;17.66;100.00;101065.72;5062845;28;20063;-70
2021/07/15 01:05:25;;;;;;;54.00;28.30;;;;;;;17.62;100.00;101055.13;5063591;28;20029;-66
2021/07/15 01:07:51;;;;;;;52.42;28.77;;;;;;;17.67;100.00;101056.78;5061884;28;20032;-67
2021/07/15 01:10:20;;;;;;;53.13;29.50;;;;;;;17.62;100.00;101058.69;5064410;28;20024;-66
2021/07/15 01:12:59;;;;;;;53.97;28.83;;;;;;;17.64;100.00;101061.34;5061369;28;20078;-68
2021/07/15 01:15:32;;;;;;;48.25;25.35;;;;;;;17.71;100.00;101053.13;5062781;28;20033;-70
2021/07/15 01:18:13;;;;;;;45.63;23.33;;;;;;;17.80;100.00;101052.06;5062734;28;20027;-69
2021/07/15 01:20:54;;;;;;;46.50;25.30;;;;;;;17.59;100.00;101050.72;5060872;28;20039;-69
2021/07/15 01:23:26;;;;;;;47.92;24.80;;;;;;;17.52;100.00;101058.00;5061483;28;20115;-70
2021/07/15 01:26:09;;;;;;;44.33;23.20;;;;;;;17.68;100.00;101047.88;5063378;28;20358;-69
2021/07/15 01:28:53;;;;;;;44.47;22.98;;;;;;;17.57;100.00;101044.53;5063555;28;20115;-67
2021/07/15 01:31:20;;;;;;;44.30;24.10;;;;;;;17.51;100.00;101042.88;5060982;28;20125;-68
2021/07/15 01:33:49;;;;;;;45.53;24.67;;;;;;;17.48;100.00;101045.63;5064035;28;20107;-69
2021/07/15 01:36:19;;;;;;;46.42;24.67;;;;;;;17.55;100.00;101057.06;5060654;28;20023;-67
2021/07/15 01:38:49;;;;;;;47.10;24.75;;;;;;;17.48;100.00;101055.44;5064449;28;20068;-66
2021/07/15 01:41:26;;;;;;;47.15;25.63;;;;;;;17.53;100.00;101058.88;5060897;28;20021;-66
2021/07/15 01:43:57;;;;;;;47.42;25.25;;;;;;;17.51;100.00;101072.28;5063246;28;20029;-69
2021/07/15 01:46:24;;;;;;;45.15;23.25;;;;;;;17.54;100.00;101071.34;5062245;28;20025;-70
2021/07/15 01:48:49;;;;;;;50.17;26.17;;;;;;;17.49;100.00;101070.53;5063355;28;20025;-66
2021/07/15 01:51:15;;;;;;;49.15;26.13;;;;;;;17.48;100.00;101067.00;5060323;28;20039;-65
2021/07/15 01:53:41;;;;;;;48.90;27.38;;;;;;;17.59;100.00;101061.41;5046245;28;20028;-62
2021/07/15 01:56:10;;;;;;;45.53;22.10;;;;;;;17.71;100.00;101057.63;5060863;28;20052;-67
2021/07/15 01:58:39;;;;;;;49.55;26.35;;;;;;;17.60;100.00;101048.03;5066427;28;20060;-68
2021/07/15 02:01:06;;;;;;;49.28;26.17;;;;;;;17.58;100.00;101041.81;5065157;28;20111;-68
2021/07/15 02:03:33;;;;;;;48.85;25.73;;;;;;;17.59;100.00;101051.63;5066857;28;20071;-67
2021/07/15 02:06:01;;;;;;;51.75;26.48;;;;;;;17.59;100.00;101042.69;5065793;28;20028;-62
2021/07/15 02:08:29;;;;;;;45.90;22.92;;;;;;;17.67;100.00;101030.06;5066266;28;20037;-61
2021/07/15 02:10:54;;;;;;;51.85;27.83;;;;;;;17.50;100.00;101034.88;5066806;28;20020;-62
2021/07/15 02:13:21;;;;;;;48.67;25.05;;;;;;;17.52;100.00;101027.75;5065066;28;20036;-62
2021/07/15 02:15:48;;;;;;;48.95;26.60;;;;;;;17.49;100.00;101035.78;5083079;28;20039;-61
2021/07/15 02:18:17;;;;;;;50.00;25.60;;;;;;;17.40;100.00;101040.44;5072092;28;20060;-61
2021/07/15 02:20:44;;;;;;;47.33;23.30;;;;;;;17.40;100.00;101034.19;5064121;28;20031;-61
2021/07/15 02:23:10;;;;;;;46.88;25.10;;;;;;;17.47;100.00;101037.63;5067403;28;20078;-61
2021/07/15 02:25:37;;;;;;;45.95;23.48;;;;;;;17.49;100.00;101035.78;5064978;28;20029;-61
2021/07/15 02:28:05;;;;;;;43.03;20.25;;;;;;;17.49;100.00;101049.16;5066630;28;20108;-61
2021/07/15 02:30:30;;;;;;;51.83;26.65;;;;;;;17.48;100.00;101067.00;5065177;28;20052;-61
2021/07/15 02:32:59;;;;;;;53.03;28.52;;;;;;;17.43;100.00;101066.22;5065240;28;20068;-61
2021/07/15 02:35:31;;;;;;;55.53;27.98;;;;;;;17.40;100.00;101064.50;5066132;28;20020;-61
2021/07/15 02:37:58;;;;;;;53.05;27.30;;;;;;;17.52;100.00;101070.50;5065321;28;20082;-61
2021/07/15 02:40:23;;;;;;;54.63;27.10;;;;;;;17.33;100.00;101057.50;5066470;28;20017;-61
2021/07/15 02:42:49;;;;;;;51.47;26.67;;;;;;;17.43;100.00;101075.09;5064548;28;20100;-61
2021/07/15 02:45:18;;;;;;;50.72;26.90;;;;;;;17.31;100.00;101058.44;5067265;28;20459;-61
2021/07/15 02:47:46;;;;;;;50.88;26.30;;;;;;;17.25;100.00;101064.78;5063718;28;20017;-61
2021/07/15 02:50:13;;;;;;;46.15;24.17;;;;;;;17.23;100.00;101074.63;5063701;28;20480;-74
2021/07/15 02:52:39;;;;;;;43.83;21.00;;;;;;;17.23;100.00;101067.50;5066910;28;20039;-65
2021/07/15 02:55:06;;;;;;;46.85;23.75;;;;;;;17.20;100.00;101069.34;5064174;28;20055;-73
2021/07/15 02:57:40;;;;;;;45.40;23.10;;;;;;;17.26;100.00;101061.22;5065780;28;20087;-68
2021/07/15 03:00:13;;;;;;;44.85;23.90;;;;;;;17.22;100.00;101068.38;5064073;28;20025;-65
2021/07/15 03:03:00;;;;;;;46.05;23.83;;;;;;;17.28;100.00;101072.72;5066690;28;20028;-71
2021/07/15 03:05:34;;;;;;;44.00;22.10;;;;;;;17.26;100.00;101077.25;5064621;28;20047;-70
2021/07/15 03:08:04;;;;;;;43.45;21.83;;;;;;;17.29;100.00;101065.63;5069224;28;20035;-67
2021/07/15 03:10:32;;;;;;;36.55;16.77;;;;;;;17.26;100.00;101066.56;5067126;28;20129;-68
2021/07/15 03:12:58;;;;;;;40.40;20.90;;;;;;;17.25;100.00;101075.47;5066575;28;20053;-65
2021/07/15 03:15:26;;;;;;;41.35;20.35;;;;;;;17.29;100.00;101079.84;5064540;28;20029;-66
2021/07/15 03:17:54;;;;;;;42.65;20.95;;;;;;;17.30;100.00;101076.28;5063405;28;20040;-65
2021/07/15 03:20:32;;;;;;;46.20;22.55;;;;;;;17.32;100.00;101071.75;5066115;28;20027;-69
2021/07/15 03:23:01;;;;;;;47.30;21.70;;;;;;;17.27;100.00;101072.75;5063025;28;20154;-67
2021/07/15 03:25:28;;;;;;;52.10;24.33;;;;;;;17.22;100.00;101075.53;5066530;28;20020;-76
2021/07/15 03:27:56;;;;;;;46.92;23.30;;;;;;;17.21;100.00;101076.44;5063511;28;20096;-67
2021/07/15 03:30:24;;;;;;;46.03;21.83;;;;;;;17.20;100.00;101083.56;5063123;28;20032;-62
2021/07/15 03:32:51;;;;;;;48.25;24.60;;;;;;;17.24;100.00;101079.03;5066102;28;20029;-62
2021/07/15 03:35:17;;;;;;;47.65;23.20;;;;;;;17.16;100.00;101083.69;5063587;28;20037;-62
2021/07/15 03:37:45;;;;;;;51.40;26.02;;;;;;;17.16;100.00;101087.22;5064930;28;20445;-63
2021/07/15 03:40:14;;;;;;;53.50;26.80;;;;;;;17.19;100.00;101094.28;5063985;28;20368;-61
2021/07/15 03:42:41;;;;;;;54.05;26.73;;;;;;;17.19;100.00;101102.31;5065160;28;20020;-62
2021/07/15 03:45:08;;;;;;;55.10;27.30;;;;;;;17.19;100.00;101094.28;5064754;28;20049;-64
2021/07/15 03:47:35;;;;;;;48.30;25.58;;;;;;;17.29;100.00;101081.66;5063592;28;20488;-61
2021/07/15 03:50:01;;;;;;;49.13;25.35;;;;;;;17.21;100.00;101092.47;5065543;28;20048;-70
2021/07/15 03:52:26;;;;;;;53.35;26.52;;;;;;;17.21;100.00;101095.13;5062393;28;20029;-62
2021/07/15 03:54:53;;;;;;;49.42;24.75;;;;;;;17.27;100.00;101105.72;5065552;28;20392;-66
2021/07/15 03:57:20;;;;;;;47.92;24.63;;;;;;;17.27;100.00;101108.41;5063073;28;20025;-67
2021/07/15 03:59:48;;;;;;;46.75;24.30;;;;;;;17.29;100.00;101097.69;5065013;28;20024;-64
2021/07/15 04:02:18;;;;;;;47.03;23.17;;;;;;;17.28;100.00;101085.22;5063275;28;20024;-68
2021/07/15 04:04:46;;;;;;;46.47;21.58;;;;;;;17.27;100.00;101095.03;5065029;28;20025;-70
2021/07/15 04:07:13;;;;;;;45.30;22.42;;;;;;;17.24;100.00;101106.66;5063416;28;20060;-70
2021/07/15 04:09:40;;;;;;;45.05;20.70;;;;;;;17.27;100.00;101097.72;5063719;28;20025;-62
2021/07/15 04:12:07;;;;;;;45.67;21.25;;;;;;;17.23;100.00;101106.69;5064301;28;20029;-62
2021/07/15 04:15:03;;;;;;;39.47;19.20;;;;;;;17.30;100.00;101105.66;5066241;28;20035;-61
2021/07/15 04:17:35;;;;;;;39.30;20.25;;;;;;;17.24;100.00;101105.75;5067730;28;20459;-62
2021/07/15 04:20:04;;;;;;;40.03;19.33;;;;;;;17.21;100.00;101121.84;5064971;28;20426;-62
2021/07/15 04:22:30;;;;;;;38.28;19.63;;;;;;;17.21;100.00;101121.84;5064796;28;20028;-62
2021/07/15 04:24:57;;;;;;;37.45;18.80;;;;;;;17.21;100.00;101124.50;5065040;28;20530;-61
2021/07/15 04:27:30;;;;;;;39.67;19.58;;;;;;;17.24;100.00;101117.34;5063432;28;20032;-61
2021/07/15 04:30:07;;;;;;;36.25;17.92;;;;;;;17.24;100.00;101116.44;5063961;28;20028;-62
2021/07/15 04:32:40;;;;;;;33.88;14.80;;;;;;;17.30;100.00;101113.69;5061311;28;20029;-62
2021/07/15 04:35:08;;;;;;;33.03;15.75;;;;;;;17.30;100.00;101112.78;5061454;28;20051;-62
2021/07/15 04:37:36;;;;;;;33.70;15.95;;;;;;;17.32;100.00;101106.50;5061735;28;20029;-62
2021/07/15 04:40:01;;;;;;;31.52;14.30;;;;;;;17.27;100.00;101116.41;5064736;28;20029;-62
2021/07/15 04:42:27;;;;;;;32.35;14.95;;;;;;;17.27;100.00;101113.75;5062229;28;20110;-61
2021/07/15 04:44:53;;;;;;;32.42;14.95;;;;;;;17.26;100.00;101125.31;5063651;28;20056;-62
2021/07/15 04:47:22;;;;;;;31.90;15.48;;;;;;;17.25;100.00;101135.09;5063071;28;20021;-62
2021/07/15 04:49:47;;;;;;;32.15;14.85;;;;;;;17.24;100.00;101138.72;5062895;28;20360;-62
2021/07/15 04:52:16;;;;;;;31.08;14.13;;;;;;;17.28;100.00;101139.53;5064053;28;20028;-62
2021/07/15 04:54:42;;;;;;;31.55;13.55;;;;;;;17.26;100.00;101138.69;5061408;28;20468;-67
2021/07/15 04:57:10;;;;;;;31.58;14.45;;;;;;;17.28;100.00;101139.53;5064926;28;20435;-71
2021/07/15 04:59:38;;;;;;;30.85;14.43;;;;;;;17.27;100.00;101142.22;5061338;28;20494;-69
2021/07/15 05:02:03;;;;;;;30.85;13.05;;;;;;;17.27;100.00;101143.13;5061075;28;20053;-75
2021/07/15 05:04:29;;;;;;;30.75;13.70;;;;;;;17.29;100.00;101143.09;5064181;28;20063;-75
2021/07/15 05:06:55;;;;;;;29.85;12.90;;;;;;;17.24;100.00;101148.50;5062642;28;20085;-79
2021/07/15 05:09:21;;;;;;;28.77;12.60;;;;;;;17.28;100.00;101138.66;5062947;28;20525;-74
2021/07/15 05:11:47;;;;;;;30.25;13.73;;;;;;;17.22;100.00;101142.31;5063062;28;20040;-75
2021/07/15 05:14:12;;;;;;;29.73;12.98;;;;;;;17.28;100.00;101147.53;5061864;28;20021;-71
2021/07/15 05:16:37;;;;;;;28.92;13.05;;;;;;;17.22;100.00;101145.84;5064566;28;20036;-69
2021/07/15 05:19:03;;;;;;;30.20;13.43;;;;;;;17.31;100.00;101139.47;5061002;28;20566;-74
2021/07/15 05:21:28;;;;;;;30.45;14.05;;;;;;;17.35;100.00;101138.50;5065621;28;20020;-62
2021/07/15 05:23:54;;;;;;;32.60;15.20;;;;;;;17.38;100.00;101135.75;5065206;28;20029;-61
2021/07/15 05:26:19;;;;;;;32.97;14.63;;;;;;;17.36;100.00;101136.72;5062729;28;20044;-64
2021/07/15 05:28:45;;;;;;;33.65;15.75;;;;;;;17.33;100.00;101135.00;5065085;28;20056;-62
2021/07/15 05:31:10;;;;;;;33.15;15.73;;;;;;;17.35;100.00;101130.47;5067036;28;20029;-61
2021/07/15 05:33:36;;;;;;;34.72;15.85;;;;;;;17.31;100.00;101136.78;5064356;28;20032;-62
2021/07/15 05:36:01;;;;;;;31.10;14.40;;;;;;;17.36;100.00;101142.94;5069160;28;20443;-61
2021/07/15 05:38:27;;;;;;;34.45;16.15;;;;;;;17.32;100.00;101145.72;5064081;28;20507;-62
2021/07/15 05:40:53;;;;;;;32.25;15.77;;;;;;;17.34;100.00;101142.06;5064430;28;20116;-63
2021/07/15 05:43:18;;;;;;;32.95;16.60;;;;;;;17.30;100.00;101151.06;5045375;28;20036;-64
2021/07/15 05:45:43;;;;;;;31.92;15.38;;;;;;;17.31;100.00;101147.47;5063215;28;20047;-62
2021/07/15 05:48:09;;;;;;;31.67;15.10;;;;;;;17.33;100.00;101148.34;5065279;28;20104;-63
2021/07/15 05:50:35;;;;;;;32.13;15.27;;;;;;;17.37;100.00;101147.38;5064427;28;20029;-63
2021/07/15 05:53:00;;;;;;;32.88;15.05;;;;;;;17.30;100.00;101145.75;5065080;28;20060;-62
2021/07/15 05:55:25;;;;;;;32.00;15.68;;;;;;;17.32;100.00;101141.22;5066579;28;20514;-60
2021/07/15 05:57:51;;;;;;;31.83;14.65;;;;;;;17.35;100.00;101146.50;5066211;28;20036;-62
2021/07/15 06:00:20;;;;;;;32.35;15.95;;;;;;;17.37;100.00;101139.38;5064811;28;20013;-61
2021/07/15 06:02:46;;;;;;;30.98;14.48;;;;;;;17.37;100.00;101155.41;5065439;28;20045;-61
2021/07/15 06:05:12;;;;;;;32.70;15.27;;;;;;;17.27;100.00;101148.47;5065091;28;20036;-61
2021/07/15 06:07:37;;;;;;;31.88;15.15;;;;;;;17.25;100.00;101143.13;5066837;28;20025;-62
2021/07/15 06:10:07;;;;;;;30.95;14.48;;;;;;;17.31;100.00;101152.81;5063755;28;20016;-61
2021/07/15 06:12:33;;;;;;;33.38;15.93;;;;;;;17.24;100.00;101162.75;5066930;28;20032;-62
2021/07/15 06:14:58;;;;;;;31.55;14.18;;;;;;;17.25;100.00;101164.50;5066336;28;20381;-62
2021/07/15 06:17:23;;;;;;;30.58;14.18;;;;;;;17.22;100.00;101183.25;5069784;28;20025;-61
2021/07/15 06:19:51;;;;;;;32.10;15.63;;;;;;;17.20;100.00;101190.44;5069833;28;20737;-62
2021/07/15 06:22:17;;;;;;;33.40;15.68;;;;;;;17.22;100.00;101203.75;5063886;28;20023;-61
2021/07/15 06:24:42;;;;;;;30.75;14.60;;;;;;;17.21;100.00;101210.00;5063242;28;20096;-62
2021/07/15 06:27:07;;;;;;;33.97;14.82;;;;;;;17.20;100.00;101213.59;5065319;28;20349;-61
2021/07/15 06:29:33;;;;;;;32.65;14.38;;;;;;;17.24;100.00;101201.94;5068532;28;20044;-62
2021/07/15 06:31:58;;;;;;;30.10;13.73;;;;;;;17.27;100.00;101201.91;5067549;28;20029;-61
2021/07/15 06:34:23;;;;;;;31.13;14.13;;;;;;;17.33;100.00;101190.19;5063158;28;20464;-61
2021/07/15 06:36:49;;;;;;;31.30;14.52;;;;;;;17.33;100.00;101204.44;5064774;28;20051;-61
2021/07/15 06:39:15;;;;;;;31.45;14.50;;;;;;;17.36;100.00;101200.84;5065773;28;20056;-62
2021/07/15 06:41:40;;;;;;;32.45;15.15;;;;;;;17.33;100.00;101208.91;5065521;28;20016;-62
2021/07/15 06:44:06;;;;;;;32.50;14.80;;;;;;;17.32;100.00;101215.16;5067146;28;20029;-61
2021/07/15 06:46:33;;;;;;;33.53;15.68;;;;;;;17.29;100.00;101205.41;5067900;28;20025;-61
2021/07/15 06:48:59;;;;;;;33.47;15.68;;;;;;;17.29;100.00;101210.75;5048736;28;20032;-61
2021/07/15 06:51:25;;;;;;;33.33;15.05;;;;;;;17.34;100.00;101208.00;5068312;28;20107;-62
2021/07/15 06:53:51;;;;;;;34.55;16.35;;;;;;;17.30;100.00;101219.63;5068383;28;20060;-62
2021/07/15 06:56:17;;;;;;;33.78;15.18;;;;;;;17.37;100.00;101216.84;5072958;28;20043;-61
2021/07/15 06:58:42;;;;;;;34.05;15.90;;;;;;;17.32;100.00;101220.50;5068639;28;20029;-62
2021/07/15 07:01:10;;;;;;;32.45;13.60;;;;;;;17.35;100.00;101209.75;5068196;28;20082;-62
2021/07/15 07:03:36;;;;;;;32.10;15.43;;;;;;;17.37;100.00;101222.19;5068686;28;20422;-63
2021/07/15 07:06:02;;;;;;;34.20;15.23;;;;;;;17.36;100.00;101228.44;5068516;28;20020;-62
2021/07/15 07:08:28;;;;;;;31.42;14.93;;;;;;;17.34;100.00;101224.03;5068447;28;20037;-61
2021/07/15 07:10:53;;;;;;;31.55;14.98;;;;;;;17.37;100.00;101230.22;5068051;28;20035;-61
2021/07/15 07:13:18;;;;;;;34.88;16.70;;;;;;;17.37;100.00;101242.66;5067190;28;20028;-61
2021/07/15 07:15:44;;;;;;;35.15;16.30;;;;;;;17.36;100.00;101241.81;5064399;28;20078;-62
2021/07/15 07:18:09;;;;;;;37.47;17.80;;;;;;;17.32;100.00;101242.75;5066216;28;20057;-61
2021/07/15 07:20:35;;;;;;;37.42;17.65;;;;;;;17.29;100.00;101253.50;5062474;28;20025;-62
2021/07/15 07:23:00;;;;;;;37.60;17.20;;;;;;;17.27;100.00;101260.66;5064077;28;20473;-61
2021/07/15 07:25:26;;;;;;;39.20;19.15;;;;;;;17.26;100.00;101264.25;5064992;28;20032;-62
2021/07/15 07:27:51;;;;;;;39.15;18.50;;;;;;;17.29;100.00;101266.84;5062991;28;20108;-62
2021/07/15 07:30:18;;;;;;;37.70;16.80;;;;;;;17.33;100.00;101260.56;5066377;28;20040;-62
2021/07/15 07:32:45;;;;;;;41.28;18.15;;;;;;;17.36;100.00;101265.84;5062787;28;20035;-62
2021/07/15 07:35:11;;;;;;;37.83;17.38;;;;;;;17.39;100.00;101270.25;5065524;28;20163;-62
2021/07/15 07:37:37;;;;;;;35.38;16.30;;;;;;;17.38;100.00;101260.47;5063542;28;20028;-62
2021/07/15 07:40:05;;;;;;;35.67;17.27;;;;;;;17.35;100.00;101256.06;5064876;28;20174;-62
2021/07/15 07:42:30;;;;;;;35.03;16.35;;;;;;;17.39;100.00;101260.44;5064275;28;20024;-62
2021/07/15 07:44:56;;;;;;;37.03;16.40;;;;;;;17.41;100.00;101263.97;5063617;28;20425;-62
2021/07/15 07:47:21;;;;;;;37.03;16.52;;;;;;;17.36;100.00;101265.84;5066633;28;20040;-63
2021/07/15 07:49:46;;;;;;;33.42;15.50;;;;;;;17.41;100.00;101261.28;5065540;28;20099;-62
2021/07/15 07:52:12;;;;;;;33.88;16.90;;;;;;;17.40;100.00;101269.34;5068081;28;20060;-62
2021/07/15 07:54:37;;;;;;;34.97;15.07;;;;;;;17.41;100.00;101263.97;5067540;28;20025;-61
2021/07/15 07:57:03;;;;;;;34.85;15.13;;;;;;;17.43;100.00;101272.84;5069730;28;20032;-63
2021/07/15 07:59:28;;;;;;;33.28;15.38;;;;;;;17.50;100.00;101273.59;5066279;28;20041;-63
2021/07/15 08:01:54;;;;;;;32.13;15.70;;;;;;;17.53;100.00;101273.59;5069476;28;20025;-61
2021/07/15 08:04:19;;;;;;;31.60;14.73;;;;;;;17.55;100.00;101276.22;5070582;28;20107;-62
2021/07/15 08:06:46;;;;;;;32.45;14.82;;;;;;;17.58;100.00;101273.50;5063434;28;20056;-60
2021/07/15 08:09:15;;;;;;;32.90;14.70;;;;;;;17.60;100.00;101285.03;5066021;28;20040;-69
2021/07/15 08:11:44;;;;;;;32.85;14.25;;;;;;;17.54;100.00;101283.34;5062094;28;20028;-68
2021/07/15 08:14:09;;;;;;;30.40;13.57;;;;;;;17.54;100.00;101285.16;5065344;28;20578;-68
2021/07/15 08:16:34;;;;;;;31.73;13.73;;;;;;;17.54;100.00;101280.66;5065067;28;20116;-68
2021/07/15 08:19:00;;;;;;;28.70;12.18;;;;;;;17.56;100.00;101285.97;5065443;28;20076;-68
2021/07/15 08:21:25;;;;;;;28.67;12.75;;;;;;;17.52;100.00;101289.66;5047172;28;20017;-68
2021/07/15 08:23:52;;;;;;;27.63;11.60;;;;;;;17.51;100.00;101302.09;5072001;28;20028;-64
2021/07/15 08:26:17;;;;;;;29.60;10.90;;;;;;;17.54;100.00;101298.50;5075201;28;20028;-63
2021/07/15 08:28:43;;;;;;;26.42;11.02;;;;;;;17.56;100.00;101300.25;5072292;28;20025;-64
2021/07/15 08:31:08;;;;;;;26.85;11.10;;;;;;;17.62;100.00;101309.06;5065877;28;20029;-66
2021/07/15 08:33:34;;;;;;;26.98;11.50;;;;;;;17.69;100.00;101313.38;5065772;28;20349;-63
2021/07/15 08:35:59;;;;;;;29.05;11.80;;;;;;;17.75;100.00;101316.84;5063347;28;20456;-64
2021/07/15 08:38:25;;;;;;;27.67;11.20;;;;;;;17.74;100.00;101317.75;5061618;28;20037;-64
2021/07/15 08:40:51;;;;;;;27.65;12.10;;;;;;;17.69;100.00;101316.97;5064571;28;20478;-65
2021/07/15 08:43:17;;;;;;;27.50;12.68;;;;;;;17.68;100.00;101323.19;5061257;28;20082;-70
2021/07/15 08:45:45;;;;;;;27.67;11.98;;;;;;;17.69;100.00;101321.41;5064238;28;20064;-64
2021/07/15 08:48:12;;;;;;;30.20;13.05;;;;;;;17.65;100.00;101335.72;5061694;28;20392;-66
2021/07/15 08:50:39;;;;;;;31.10;13.88;;;;;;;17.66;100.00;101329.47;5063732;28;20105;-65
2021/07/15 08:53:05;;;;;;;30.30;14.32;;;;;;;17.67;100.00;101333.94;5062495;28;20494;-64
2021/07/15 08:58:16;;;;;;;32.47;14.63;;;;;;;17.77;100.00;101330.19;5060408;28;20041;-66
2021/07/15 09:00:43;;;;;;;34.15;15.40;;;;;;;17.88;100.00;101321.94;5065118;28;20379;-62
2021/07/15 09:03:09;;;;;;;33.92;15.57;;;;;;;17.95;100.00;101328.97;5064331;28;20028;-63
2021/07/15 09:05:34;;;;;;;32.42;14.60;;;;;;;18.06;100.00;101327.00;5059792;28;20634;-63
2021/07/15 09:08:01;;;;;;;32.75;15.18;;;;;;;18.20;100.00;101342.78;5067941;28;20017;-63
2021/07/15 09:10:27;;;;;;;34.22;15.60;;;;;;;18.20;100.00;101345.47;5066995;28;20024;-63
2021/07/15 09:12:52;;;;;;;30.55;13.63;;;;;;;18.12;100.00;101342.91;5065706;28;20468;-64
2021/07/15 09:15:18;;;;;;;30.58;13.50;;;;;;;18.03;100.00;101348.47;5065301;28;20055;-65
2021/07/15 09:17:43;;;;;;;29.30;12.88;;;;;;;17.93;100.00;101349.53;5061733;28;20033;-63
2021/07/15 09:20:24;;;;;;;31.30;13.52;;;;;;;17.87;100.00;101352.31;5063939;28;20025;-67
2021/07/15 09:22:55;;;;;;;28.52;12.95;;;;;;;17.84;100.00;101363.91;5063255;28;20504;-62
2021/07/15 09:25:20;;;;;;;28.55;12.23;;;;;;;17.87;100.00;101357.66;5066064;28;20107;-61
2021/07/15 09:27:49;;;;;;;27.77;11.70;;;;;;;17.85;100.00;101364.78;5064919;28;20127;-62
2021/07/15 09:30:16;;;;;;;27.75;12.93;;;;;;;17.81;100.00;101360.41;5067694;28;20027;-63
2021/07/15 09:32:52;;;;;;;26.92;12.27;;;;;;;17.90;100.00;101368.31;5066826;28;20557;-63
2021/07/15 09:35:36;;;;;;;26.80;12.38;;;;;;;17.73;100.00;101372.09;5066297;28;20585;-77
2021/07/15 09:38:15;;;;;;;28.17;13.70;;;;;;;17.81;100.00;101369.31;5067528;28;20020;-73
2021/07/15 09:41:00;;;;;;;32.45;14.57;;;;;;;17.91;100.00;101368.28;5049551;28;20050;-62
2021/07/15 09:43:28;;;;;;;32.97;15.57;;;;;;;17.84;100.00;101366.59;5063776;28;20037;-70
2021/07/15 09:45:56;;;;;;;32.42;15.77;;;;;;;17.98;100.00;101373.53;5061476;28;20028;-64
2021/07/15 09:48:23;;;;;;;33.17;15.35;;;;;;;17.99;100.00;101362.78;5069175;28;20024;-80
2021/07/15 09:50:50;;;;;;;33.35;16.33;;;;;;;18.03;100.00;101372.53;5066724;28;20060;-62
2021/07/15 09:53:31;;;;;;;33.25;15.75;;;;;;;18.11;100.00;101383.06;5068600;28;20378;-62
2021/07/15 09:56:03;;;;;;;32.38;15.75;;;;;;;18.20;100.00;101371.31;5068607;28;20044;-62
2021/07/15 09:58:37;;;;;;;33.92;15.52;;;;;;;18.31;100.00;101372.00;5069896;28;20029;-63
2021/07/15 10:01:08;;;;;;;30.98;14.93;;;;;;;18.50;100.00;101372.53;5067865;28;20024;-68
2021/07/15 10:03:35;;;;;;;31.67;15.32;;;;;;;18.62;100.00;101374.97;5068845;28;20103;-70
2021/07/15 10:06:03;;;;;;;30.55;15.20;;;;;;;18.61;100.00;101377.63;5067845;28;20070;-74
2021/07/15 10:08:40;;;;;;;33.15;15.48;;;;;;;18.56;100.00;101374.19;5060980;28;20087;-63
2021/07/15 10:11:17;;;;;;;32.95;15.35;;;;;;;18.52;100.00;101372.47;5061050;28;20418;-62
2021/07/15 10:13:44;;;;;;;31.75;14.82;;;;;;;18.58;100.00;101367.00;5063631;28;20025;-62
2021/07/15 10:16:10;;;;;;;33.15;15.93;;;;;;;18.58;100.00;101383.06;5060783;28;20013;-62
2021/07/15 10:18:40;;;;;;;31.48;15.02;;;;;;;18.55;100.00;101383.13;5064567;28;20052;-62
2021/07/15 10:21:08;;;;;;;33.47;15.45;;;;;;;18.50;100.00;101390.38;5072238;28;20056;-61
2021/07/15 10:23:42;;;;;;;32.47;15.82;;;;;;;18.42;100.00;101394.09;5067574;28;20025;-62
2021/07/15 10:26:09;;;;;;;30.67;14.98;;;;;;;18.43;100.00;101390.47;5068134;28;20472;-63
2021/07/15 10:28:36;;;;;;;29.63;14.60;;;;;;;18.41;100.00;101386.97;5067336;28;20024;-63
2021/07/15 10:31:07;;;;;;;31.20;14.95;;;;;;;18.33;100.00;101388.91;5069039;28;20050;-63
2021/07/15 10:33:33;;;;;;;32.28;14.63;;;;;;;18.29;100.00;101392.56;5068179;28;20071;-64
2021/07/15 10:36:00;;;;;;;31.13;15.43;;;;;;;18.27;100.00;101391.69;5067487;28;20546;-63
2021/07/15 10:38:30;;;;;;;30.55;14.60;;;;;;;18.26;100.00;101403.31;5067995;28;20360;-64
2021/07/15 10:40:57;;;;;;;31.30;14.77;;;;;;;18.20;100.00;101398.06;5070558;28;20031;-64
2021/07/15 10:43:23;;;;;;;30.63;14.43;;;;;;;18.19;100.00;101396.31;5066417;28;20112;-63
2021/07/15 10:45:48;;;;;;;31.83;15.35;;;;;;;18.08;100.00;101394.72;5066956;28;20107;-63
2021/07/15 10:48:17;;;;;;;31.80;14.50;;;;;;;18.14;100.00;101404.41;5068873;28;20501;-60
2021/07/15 10:50:43;;;;;;;33.78;16.33;;;;;;;18.20;100.00;101407.00;5067886;28;20024;-63
2021/07/15 10:53:09;;;;;;;33.78;14.98;;;;;;;18.25;100.00;101412.28;5068620;28;20072;-64
2021/07/15 10:55:36;;;;;;;33.60;16.20;;;;;;;18.26;100.00;101411.34;5065800;28;20040;-64
2021/07/15 10:58:01;;;;;;;34.10;16.27;;;;;;;18.28;100.00;101409.53;5070145;28;20021;-65
2021/07/15 11:00:28;;;;;;;34.58;16.40;;;;;;;18.31;100.00;101412.16;5065562;28;20032;-64
2021/07/15 11:03:22;;;;;;;30.90;14.85;;;;;;;18.33;100.00;101410.31;5067288;28;20031;-63
2021/07/15 11:05:57;;;;;;;31.55;14.98;;;;;;;18.21;100.00;101424.81;5065397;28;20467;-63
2021/07/15 11:08:44;;;;;;;33.05;15.68;;;;;;;18.20;100.00;101414.13;5063592;28;20123;-61